Tyringham, Massachusetts
Current Conditions -  °F | °C
As of 1:04 AM on Saturday 29 Nov 2014 (Local Time) from KPSF Reporting Station
Scattered Clouds Scattered Clouds  
Wind Chill:   Ceiling: Unl
Heat Index: 18°   Visibility: 10mi
Dew Point: 12°   Wind: 10mph
Humidity: 78%   Direction: 290°WNW
Pressure: 30.16"   Gusts: NA
Location:  42.25°N, 73.2°W
Report Text: KPSF 290604Z AUTO 29009KT 10SM SCT026 M08/M11 A3016 RMK AO2 T10781111
Loading
Personal Weather Stations






























Interactive Weather Map New forecast layout! Learn more

10-Day Weather Forecast

Advertisements
Track Severe Weather on mobile